sensor_id;sensor_type;location;lat;lon;timestamp;temperature;humidity
44461;DHT22;30162;53.642;10.640;2022-07-05T00:00:11;17.90;90.80
44461;DHT22;30162;53.642;10.640;2022-07-05T00:02:37;18.00;90.70
44461;DHT22;30162;53.642;10.640;2022-07-05T00:05:03;18.00;90.70
44461;DHT22;30162;53.642;10.640;2022-07-05T00:07:28;18.20;90.60
44461;DHT22;30162;53.642;10.640;2022-07-05T00:09:56;18.10;90.60
44461;DHT22;30162;53.642;10.640;2022-07-05T00:12:28;18.10;90.70
44461;DHT22;30162;53.642;10.640;2022-07-05T00:14:56;18.10;90.60
44461;DHT22;30162;53.642;10.640;2022-07-05T00:17:22;18.10;90.70
44461;DHT22;30162;53.642;10.640;2022-07-05T00:19:47;18.10;90.90
44461;DHT22;30162;53.642;10.640;2022-07-05T00:22:13;18.00;90.80
44461;DHT22;30162;53.642;10.640;2022-07-05T00:24:38;18.00;91.00
44461;DHT22;30162;53.642;10.640;2022-07-05T00:27:04;18.00;90.90
44461;DHT22;30162;53.642;10.640;2022-07-05T00:29:30;17.90;91.20
44461;DHT22;30162;53.642;10.640;2022-07-05T00:31:55;17.80;91.20
44461;DHT22;30162;53.642;10.640;2022-07-05T00:34:21;17.90;91.20
44461;DHT22;30162;53.642;10.640;2022-07-05T00:36:47;18.00;91.00
44461;DHT22;30162;53.642;10.640;2022-07-05T00:39:12;18.10;90.70
44461;DHT22;30162;53.642;10.640;2022-07-05T00:41:38;18.00;90.70
44461;DHT22;30162;53.642;10.640;2022-07-05T00:44:07;18.00;90.50
44461;DHT22;30162;53.642;10.640;2022-07-05T00:46:33;17.70;91.10
44461;DHT22;30162;53.642;10.640;2022-07-05T00:49:00;17.60;91.20
44461;DHT22;30162;53.642;10.640;2022-07-05T00:51:29;17.70;91.20
44461;DHT22;30162;53.642;10.640;2022-07-05T00:53:55;17.50;91.30
44461;DHT22;30162;53.642;10.640;2022-07-05T00:56:24;17.50;91.40
44461;DHT22;30162;53.642;10.640;2022-07-05T00:58:50;17.60;91.10
44461;DHT22;30162;53.642;10.640;2022-07-05T01:01:16;17.70;91.00
44461;DHT22;30162;53.642;10.640;2022-07-05T01:03:42;17.60;91.20
44461;DHT22;30162;53.642;10.640;2022-07-05T01:06:10;17.40;91.20
44461;DHT22;30162;53.642;10.640;2022-07-05T01:08:38;17.30;91.60
44461;DHT22;30162;53.642;10.640;2022-07-05T01:11:04;17.00;91.90
44461;DHT22;30162;53.642;10.640;2022-07-05T01:13:30;17.20;92.00
44461;DHT22;30162;53.642;10.640;2022-07-05T01:15:56;17.20;91.60
44461;DHT22;30162;53.642;10.640;2022-07-05T01:18:22;17.00;92.00
44461;DHT22;30162;53.642;10.640;2022-07-05T01:20:51;16.80;94.60
44461;DHT22;30162;53.642;10.640;2022-07-05T01:23:17;16.90;95.10
44461;DHT22;30162;53.642;10.640;2022-07-05T01:25:45;16.80;96.30
44461;DHT22;30162;53.642;10.640;2022-07-05T01:28:11;16.60;97.40
44461;DHT22;30162;53.642;10.640;2022-07-05T01:30:37;16.60;97.40
44461;DHT22;30162;53.642;10.640;2022-07-05T01:33:05;17.10;97.80
44461;DHT22;30162;53.642;10.640;2022-07-05T01:35:31;16.50;98.00
44461;DHT22;30162;53.642;10.640;2022-07-05T01:37:57;16.50;98.30
44461;DHT22;30162;53.642;10.640;2022-07-05T01:40:22;16.40;98.90
44461;DHT22;30162;53.642;10.640;2022-07-05T01:42:48;16.30;99.20
44461;DHT22;30162;53.642;10.640;2022-07-05T01:45:14;16.20;99.20
44461;DHT22;30162;53.642;10.640;2022-07-05T01:48:04;16.30;99.20
44461;DHT22;30162;53.642;10.640;2022-07-05T01:50:35;16.30;99.60
44461;DHT22;30162;53.642;10.640;2022-07-05T01:53:03;16.40;99.40
44461;DHT22;30162;53.642;10.640;2022-07-05T01:55:29;16.60;99.10
44461;DHT22;30162;53.642;10.640;2022-07-05T01:57:54;16.60;99.10
44461;DHT22;30162;53.642;10.640;2022-07-05T02:00:20;16.70;99.10
44461;DHT22;30162;53.642;10.640;2022-07-05T02:02:46;17.50;98.70
44461;DHT22;30162;53.642;10.640;2022-07-05T02:05:12;16.40;99.30
44461;DHT22;30162;53.642;10.640;2022-07-05T02:07:47;16.50;99.20
44461;DHT22;30162;53.642;10.640;2022-07-05T02:12:44;16.90;98.50
44461;DHT22;30162;53.642;10.640;2022-07-05T02:15:10;16.60;98.30
44461;DHT22;30162;53.642;10.640;2022-07-05T02:25:11;16.30;99.90
44461;DHT22;30162;53.642;10.640;2022-07-05T02:27:36;16.50;96.50
44461;DHT22;30162;53.642;10.640;2022-07-05T02:30:02;16.40;96.50
44461;DHT22;30162;53.642;10.640;2022-07-05T02:32:28;16.20;96.10
44461;DHT22;30162;53.642;10.640;2022-07-05T02:34:55;16.20;95.80
44461;DHT22;30162;53.642;10.640;2022-07-05T02:37:21;16.20;95.60
44461;DHT22;30162;53.642;10.640;2022-07-05T02:39:46;16.20;95.40
44461;DHT22;30162;53.642;10.640;2022-07-05T02:42:12;16.20;95.30
44461;DHT22;30162;53.642;10.640;2022-07-05T02:44:37;16.20;94.80
44461;DHT22;30162;53.642;10.640;2022-07-05T02:47:03;16.00;95.20
44461;DHT22;30162;53.642;10.640;2022-07-05T02:49:29;16.00;95.10
44461;DHT22;30162;53.642;10.640;2022-07-05T02:51:54;16.00;94.40
44461;DHT22;30162;53.642;10.640;2022-07-05T02:54:20;16.20;94.20
44461;DHT22;30162;53.642;10.640;2022-07-05T02:56:45;16.20;93.80
44461;DHT22;30162;53.642;10.640;2022-07-05T02:59:11;16.20;93.70
44461;DHT22;30162;53.642;10.640;2022-07-05T03:01:36;16.20;93.60
44461;DHT22;30162;53.642;10.640;2022-07-05T03:04:02;16.20;93.50
44461;DHT22;30162;53.642;10.640;2022-07-05T03:06:27;16.20;93.50
44461;DHT22;30162;53.642;10.640;2022-07-05T03:08:53;16.20;93.20
44461;DHT22;30162;53.642;10.640;2022-07-05T03:11:18;16.20;93.30
44461;DHT22;30162;53.642;10.640;2022-07-05T03:13:46;16.10;93.70
44461;DHT22;30162;53.642;10.640;2022-07-05T03:16:13;16.00;93.70
44461;DHT22;30162;53.642;10.640;2022-07-05T03:18:38;16.00;93.90
44461;DHT22;30162;53.642;10.640;2022-07-05T03:21:04;16.10;93.60
44461;DHT22;30162;53.642;10.640;2022-07-05T03:23:29;16.10;93.10
44461;DHT22;30162;53.642;10.640;2022-07-05T03:25:55;16.20;93.70
44461;DHT22;30162;53.642;10.640;2022-07-05T03:28:20;16.30;93.60
44461;DHT22;30162;53.642;10.640;2022-07-05T03:30:46;16.50;93.20
44461;DHT22;30162;53.642;10.640;2022-07-05T03:33:11;16.30;93.40
44461;DHT22;30162;53.642;10.640;2022-07-05T03:35:37;16.40;93.30
44461;DHT22;30162;53.642;10.640;2022-07-05T03:38:03;16.50;93.10
44461;DHT22;30162;53.642;10.640;2022-07-05T03:40:28;16.50;93.00
44461;DHT22;30162;53.642;10.640;2022-07-05T03:42:54;16.50;93.50
44461;DHT22;30162;53.642;10.640;2022-07-05T03:45:19;16.50;93.70
44461;DHT22;30162;53.642;10.640;2022-07-05T03:47:45;16.50;93.80
44461;DHT22;30162;53.642;10.640;2022-07-05T03:50:11;16.70;93.90
44461;DHT22;30162;53.642;10.640;2022-07-05T03:52:36;16.70;93.40
44461;DHT22;30162;53.642;10.640;2022-07-05T03:55:02;16.70;93.70
44461;DHT22;30162;53.642;10.640;2022-07-05T03:57:27;16.70;93.60
44461;DHT22;30162;53.642;10.640;2022-07-05T03:59:53;16.80;93.70
44461;DHT22;30162;53.642;10.640;2022-07-05T04:02:18;16.90;93.30
44461;DHT22;30162;53.642;10.640;2022-07-05T04:04:44;16.80;93.50
44461;DHT22;30162;53.642;10.640;2022-07-05T04:07:10;17.10;93.80
44461;DHT22;30162;53.642;10.640;2022-07-05T04:09:35;17.20;93.40
44461;DHT22;30162;53.642;10.640;2022-07-05T04:12:01;17.50;93.00
44461;DHT22;30162;53.642;10.640;2022-07-05T04:14:26;17.50;92.80
44461;DHT22;30162;53.642;10.640;2022-07-05T04:16:52;17.50;93.00
44461;DHT22;30162;53.642;10.640;2022-07-05T04:19:17;17.30;93.20
44461;DHT22;30162;53.642;10.640;2022-07-05T04:21:43;17.50;93.20
44461;DHT22;30162;53.642;10.640;2022-07-05T04:24:08;17.60;93.30
44461;DHT22;30162;53.642;10.640;2022-07-05T04:26:34;17.80;92.90
44461;DHT22;30162;53.642;10.640;2022-07-05T04:28:59;18.00;92.70
44461;DHT22;30162;53.642;10.640;2022-07-05T04:31:25;18.20;92.60
44461;DHT22;30162;53.642;10.640;2022-07-05T04:33:50;18.30;92.30
44461;DHT22;30162;53.642;10.640;2022-07-05T04:36:16;18.20;92.50
44461;DHT22;30162;53.642;10.640;2022-07-05T04:38:41;18.30;92.30
44461;DHT22;30162;53.642;10.640;2022-07-05T04:41:07;18.50;92.20
44461;DHT22;30162;53.642;10.640;2022-07-05T04:43:33;18.50;92.30
44461;DHT22;30162;53.642;10.640;2022-07-05T04:45:59;18.60;92.40
44461;DHT22;30162;53.642;10.640;2022-07-05T04:48:25;18.70;92.20
44461;DHT22;30162;53.642;10.640;2022-07-05T04:50:51;18.60;92.40
44461;DHT22;30162;53.642;10.640;2022-07-05T04:53:16;18.60;92.50
44461;DHT22;30162;53.642;10.640;2022-07-05T04:55:42;18.80;92.00
44461;DHT22;30162;53.642;10.640;2022-07-05T04:58:07;18.70;92.40
44461;DHT22;30162;53.642;10.640;2022-07-05T05:00:33;19.00;92.20
44461;DHT22;30162;53.642;10.640;2022-07-05T05:02:58;19.20;91.90
44461;DHT22;30162;53.642;10.640;2022-07-05T05:05:24;19.50;91.90
44461;DHT22;30162;53.642;10.640;2022-07-05T05:07:49;19.60;91.30
44461;DHT22;30162;53.642;10.640;2022-07-05T05:10:15;19.70;91.20
44461;DHT22;30162;53.642;10.640;2022-07-05T05:12:40;19.90;91.30
44461;DHT22;30162;53.642;10.640;2022-07-05T05:15:07;20.00;90.80
44461;DHT22;30162;53.642;10.640;2022-07-05T05:17:41;19.90;90.80
44461;DHT22;30162;53.642;10.640;2022-07-05T05:20:14;19.60;90.90
44461;DHT22;30162;53.642;10.640;2022-07-05T05:22:40;19.60;91.00
44461;DHT22;30162;53.642;10.640;2022-07-05T05:25:06;19.90;90.70
44461;DHT22;30162;53.642;10.640;2022-07-05T05:27:32;19.70;90.90
44461;DHT22;30162;53.642;10.640;2022-07-05T05:29:58;20.10;90.60
44461;DHT22;30162;53.642;10.640;2022-07-05T05:32:23;20.50;90.30
44461;DHT22;30162;53.642;10.640;2022-07-05T05:34:49;20.70;90.10
44461;DHT22;30162;53.642;10.640;2022-07-05T05:37:14;20.90;89.20
44461;DHT22;30162;53.642;10.640;2022-07-05T05:39:40;20.90;88.90
44461;DHT22;30162;53.642;10.640;2022-07-05T05:42:06;21.00;88.20
44461;DHT22;30162;53.642;10.640;2022-07-05T05:44:32;21.00;88.90
44461;DHT22;30162;53.642;10.640;2022-07-05T05:46:57;21.30;88.40
44461;DHT22;30162;53.642;10.640;2022-07-05T05:49:23;21.50;87.30
44461;DHT22;30162;53.642;10.640;2022-07-05T05:51:48;21.80;87.90
44461;DHT22;30162;53.642;10.640;2022-07-05T05:54:14;21.70;85.50
44461;DHT22;30162;53.642;10.640;2022-07-05T05:56:39;21.90;86.20
44461;DHT22;30162;53.642;10.640;2022-07-05T05:59:05;21.80;85.50
44461;DHT22;30162;53.642;10.640;2022-07-05T06:01:30;22.10;85.50
44461;DHT22;30162;53.642;10.640;2022-07-05T06:03:56;22.10;84.10
44461;DHT22;30162;53.642;10.640;2022-07-05T06:06:21;22.10;84.00
44461;DHT22;30162;53.642;10.640;2022-07-05T06:08:47;21.40;84.70
44461;DHT22;30162;53.642;10.640;2022-07-05T06:11:12;21.70;85.40
44461;DHT22;30162;53.642;10.640;2022-07-05T06:13:39;22.00;84.50
44461;DHT22;30162;53.642;10.640;2022-07-05T06:16:06;22.30;82.90
44461;DHT22;30162;53.642;10.640;2022-07-05T06:18:32;22.30;82.60
44461;DHT22;30162;53.642;10.640;2022-07-05T06:20:57;21.90;82.10
44461;DHT22;30162;53.642;10.640;2022-07-05T06:23:23;22.10;83.00
44461;DHT22;30162;53.642;10.640;2022-07-05T06:25:49;22.10;82.40
44461;DHT22;30162;53.642;10.640;2022-07-05T06:28:14;21.90;82.30
44461;DHT22;30162;53.642;10.640;2022-07-05T06:30:41;21.90;82.80
44461;DHT22;30162;53.642;10.640;2022-07-05T06:33:07;22.20;83.80
44461;DHT22;30162;53.642;10.640;2022-07-05T06:35:32;22.20;83.10
44461;DHT22;30162;53.642;10.640;2022-07-05T06:38:04;22.50;82.70
44461;DHT22;30162;53.642;10.640;2022-07-05T06:40:32;22.60;82.80
44461;DHT22;30162;53.642;10.640;2022-07-05T06:43:03;22.80;81.60
44461;DHT22;30162;53.642;10.640;2022-07-05T06:45:29;22.90;79.20
44461;DHT22;30162;53.642;10.640;2022-07-05T06:48:18;22.60;79.70
44461;DHT22;30162;53.642;10.640;2022-07-05T06:50:44;22.40;80.50
44461;DHT22;30162;53.642;10.640;2022-07-05T06:53:10;22.10;81.80
44461;DHT22;30162;53.642;10.640;2022-07-05T06:55:35;22.20;81.50
44461;DHT22;30162;53.642;10.640;2022-07-05T06:58:06;22.70;81.80
44461;DHT22;30162;53.642;10.640;2022-07-05T07:00:32;23.20;81.00
44461;DHT22;30162;53.642;10.640;2022-07-05T07:02:59;23.10;79.80
44461;DHT22;30162;53.642;10.640;2022-07-05T07:05:25;23.40;77.70
44461;DHT22;30162;53.642;10.640;2022-07-05T07:07:51;23.70;77.80
44461;DHT22;30162;53.642;10.640;2022-07-05T07:10:35;23.50;77.40
44461;DHT22;30162;53.642;10.640;2022-07-05T07:13:01;23.40;76.60
44461;DHT22;30162;53.642;10.640;2022-07-05T07:15:28;23.70;76.10
44461;DHT22;30162;53.642;10.640;2022-07-05T07:17:53;23.60;76.00
44461;DHT22;30162;53.642;10.640;2022-07-05T07:20:19;24.00;75.20
44461;DHT22;30162;53.642;10.640;2022-07-05T07:22:45;24.10;74.80
44461;DHT22;30162;53.642;10.640;2022-07-05T07:25:11;23.80;74.40
44461;DHT22;30162;53.642;10.640;2022-07-05T07:27:49;23.90;73.40
44461;DHT22;30162;53.642;10.640;2022-07-05T07:30:17;24.20;75.30
44461;DHT22;30162;53.642;10.640;2022-07-05T07:32:44;24.00;73.60
44461;DHT22;30162;53.642;10.640;2022-07-05T07:35:10;24.40;72.60
44461;DHT22;30162;53.642;10.640;2022-07-05T07:37:36;24.70;71.30
44461;DHT22;30162;53.642;10.640;2022-07-05T07:40:03;24.80;71.10
44461;DHT22;30162;53.642;10.640;2022-07-05T07:42:29;24.80;69.70
44461;DHT22;30162;53.642;10.640;2022-07-05T07:44:55;24.60;69.30
44461;DHT22;30162;53.642;10.640;2022-07-05T07:47:20;24.40;69.00
44461;DHT22;30162;53.642;10.640;2022-07-05T07:49:46;24.50;69.10
44461;DHT22;30162;53.642;10.640;2022-07-05T07:52:11;24.70;67.80
44461;DHT22;30162;53.642;10.640;2022-07-05T07:54:37;24.50;68.10
44461;DHT22;30162;53.642;10.640;2022-07-05T07:57:03;24.50;68.00
44461;DHT22;30162;53.642;10.640;2022-07-05T07:59:31;24.40;68.20
44461;DHT22;30162;53.642;10.640;2022-07-05T08:01:56;24.60;66.70
44461;DHT22;30162;53.642;10.640;2022-07-05T08:04:22;24.10;65.80
44461;DHT22;30162;53.642;10.640;2022-07-05T08:06:48;23.90;68.00
44461;DHT22;30162;53.642;10.640;2022-07-05T08:09:13;24.60;66.70
44461;DHT22;30162;53.642;10.640;2022-07-05T08:11:39;25.40;65.90
44461;DHT22;30162;53.642;10.640;2022-07-05T08:14:05;25.60;65.70
44461;DHT22;30162;53.642;10.640;2022-07-05T08:16:31;26.00;64.80
44461;DHT22;30162;53.642;10.640;2022-07-05T08:18:57;25.80;64.10
44461;DHT22;30162;53.642;10.640;2022-07-05T08:21:42;25.80;65.20
44461;DHT22;30162;53.642;10.640;2022-07-05T08:24:13;25.90;64.80
44461;DHT22;30162;53.642;10.640;2022-07-05T08:26:39;26.00;64.10
44461;DHT22;30162;53.642;10.640;2022-07-05T08:29:08;26.10;65.40
44461;DHT22;30162;53.642;10.640;2022-07-05T08:31:42;26.00;64.90
44461;DHT22;30162;53.642;10.640;2022-07-05T08:34:08;25.60;65.30
44461;DHT22;30162;53.642;10.640;2022-07-05T08:36:34;25.20;65.20
44461;DHT22;30162;53.642;10.640;2022-07-05T08:39:00;24.90;65.70
44461;DHT22;30162;53.642;10.640;2022-07-05T08:41:25;24.50;65.70
44461;DHT22;30162;53.642;10.640;2022-07-05T08:43:51;24.10;68.30
44461;DHT22;30162;53.642;10.640;2022-07-05T08:46:18;24.00;67.90
44461;DHT22;30162;53.642;10.640;2022-07-05T08:48:46;24.00;68.40
44461;DHT22;30162;53.642;10.640;2022-07-05T08:51:19;23.80;68.10
44461;DHT22;30162;53.642;10.640;2022-07-05T08:53:52;23.60;68.90
44461;DHT22;30162;53.642;10.640;2022-07-05T08:56:19;23.50;69.60
44461;DHT22;30162;53.642;10.640;2022-07-05T08:58:45;23.40;70.20
44461;DHT22;30162;53.642;10.640;2022-07-05T09:01:12;23.90;70.20
44461;DHT22;30162;53.642;10.640;2022-07-05T09:03:49;24.80;69.20
44461;DHT22;30162;53.642;10.640;2022-07-05T09:06:23;25.10;66.50
44461;DHT22;30162;53.642;10.640;2022-07-05T09:08:53;25.50;65.10
44461;DHT22;30162;53.642;10.640;2022-07-05T09:11:23;26.20;63.60
44461;DHT22;30162;53.642;10.640;2022-07-05T09:13:50;26.80;63.60
44461;DHT22;30162;53.642;10.640;2022-07-05T09:16:16;27.30;61.20
44461;DHT22;30162;53.642;10.640;2022-07-05T09:18:45;27.60;59.00
44461;DHT22;30162;53.642;10.640;2022-07-05T09:23:38;26.30;59.00
44461;DHT22;30162;53.642;10.640;2022-07-05T09:26:03;25.90;59.30
44461;DHT22;30162;53.642;10.640;2022-07-05T09:28:29;25.50;59.80
44461;DHT22;30162;53.642;10.640;2022-07-05T09:30:54;25.60;61.20
44461;DHT22;30162;53.642;10.640;2022-07-05T09:33:20;25.80;58.60
44461;DHT22;30162;53.642;10.640;2022-07-05T09:35:53;25.90;59.30
44461;DHT22;30162;53.642;10.640;2022-07-05T09:38:26;25.70;57.40
44461;DHT22;30162;53.642;10.640;2022-07-05T09:40:57;26.20;57.00
44461;DHT22;30162;53.642;10.640;2022-07-05T09:43:28;26.20;55.30
44461;DHT22;30162;53.642;10.640;2022-07-05T09:45:57;26.60;55.80
44461;DHT22;30162;53.642;10.640;2022-07-05T09:48:23;26.90;55.80
44461;DHT22;30162;53.642;10.640;2022-07-05T09:50:49;27.10;54.80
44461;DHT22;30162;53.642;10.640;2022-07-05T09:53:17;27.70;56.10
44461;DHT22;30162;53.642;10.640;2022-07-05T09:56:00;27.80;53.30
44461;DHT22;30162;53.642;10.640;2022-07-05T09:58:26;27.40;54.10
44461;DHT22;30162;53.642;10.640;2022-07-05T10:00:52;27.30;54.50
44461;DHT22;30162;53.642;10.640;2022-07-05T10:03:18;27.00;52.40
44461;DHT22;30162;53.642;10.640;2022-07-05T10:05:44;26.80;56.60
44461;DHT22;30162;53.642;10.640;2022-07-05T10:08:10;27.30;55.70
44461;DHT22;30162;53.642;10.640;2022-07-05T10:10:38;27.50;53.80
44461;DHT22;30162;53.642;10.640;2022-07-05T10:13:04;28.30;54.70
44461;DHT22;30162;53.642;10.640;2022-07-05T10:15:34;28.60;53.00
44461;DHT22;30162;53.642;10.640;2022-07-05T10:18:05;28.70;53.20
44461;DHT22;30162;53.642;10.640;2022-07-05T10:23:08;28.30;52.70
44461;DHT22;30162;53.642;10.640;2022-07-05T10:25:37;27.50;53.00
44461;DHT22;30162;53.642;10.640;2022-07-05T10:28:04;27.40;53.30
44461;DHT22;30162;53.642;10.640;2022-07-05T10:30:30;27.50;54.20
44461;DHT22;30162;53.642;10.640;2022-07-05T10:32:56;27.40;52.70
44461;DHT22;30162;53.642;10.640;2022-07-05T10:35:22;27.30;53.00
44461;DHT22;30162;53.642;10.640;2022-07-05T10:37:49;27.60;55.00
44461;DHT22;30162;53.642;10.640;2022-07-05T10:40:16;27.90;54.20
44461;DHT22;30162;53.642;10.640;2022-07-05T10:42:54;28.30;53.80
44461;DHT22;30162;53.642;10.640;2022-07-05T10:45:34;28.80;54.20
44461;DHT22;30162;53.642;10.640;2022-07-05T10:53:19;27.30;52.90
44461;DHT22;30162;53.642;10.640;2022-07-05T10:55:48;26.70;55.30
44461;DHT22;30162;53.642;10.640;2022-07-05T11:00:42;27.00;55.00
44461;DHT22;30162;53.642;10.640;2022-07-05T11:03:32;26.90;54.90
44461;DHT22;30162;53.642;10.640;2022-07-05T11:05:58;26.20;56.10
44461;DHT22;30162;53.642;10.640;2022-07-05T11:08:24;26.70;55.80
44461;DHT22;30162;53.642;10.640;2022-07-05T11:11:09;27.10;55.60
44461;DHT22;30162;53.642;10.640;2022-07-05T11:13:36;27.70;55.10
44461;DHT22;30162;53.642;10.640;2022-07-05T11:16:32;28.50;54.20
44461;DHT22;30162;53.642;10.640;2022-07-05T11:19:12;29.20;55.10
44461;DHT22;30162;53.642;10.640;2022-07-05T11:21:40;28.90;53.40
44461;DHT22;30162;53.642;10.640;2022-07-05T11:24:26;28.70;54.20
44461;DHT22;30162;53.642;10.640;2022-07-05T11:26:53;28.50;54.00
44461;DHT22;30162;53.642;10.640;2022-07-05T11:32:14;27.90;52.90
44461;DHT22;30162;53.642;10.640;2022-07-05T11:34:45;27.80;54.00
44461;DHT22;30162;53.642;10.640;2022-07-05T11:37:21;27.70;54.10
44461;DHT22;30162;53.642;10.640;2022-07-05T11:42:50;28.40;53.00
44461;DHT22;30162;53.642;10.640;2022-07-05T11:45:16;28.20;53.10
44461;DHT22;30162;53.642;10.640;2022-07-05T11:47:42;28.30;53.20
44461;DHT22;30162;53.642;10.640;2022-07-05T11:50:10;28.10;52.30
44461;DHT22;30162;53.642;10.640;2022-07-05T11:52:36;27.50;51.60
44461;DHT22;30162;53.642;10.640;2022-07-05T11:55:05;27.10;54.50
44461;DHT22;30162;53.642;10.640;2022-07-05T11:57:31;27.80;54.00
44461;DHT22;30162;53.642;10.640;2022-07-05T11:59:56;28.60;53.90
44461;DHT22;30162;53.642;10.640;2022-07-05T12:02:22;28.90;51.10
44461;DHT22;30162;53.642;10.640;2022-07-05T12:04:49;28.80;51.00
44461;DHT22;30162;53.642;10.640;2022-07-05T12:09:53;28.50;52.40
44461;DHT22;30162;53.642;10.640;2022-07-05T12:12:37;28.60;52.80
44461;DHT22;30162;53.642;10.640;2022-07-05T12:17:36;28.40;51.90
44461;DHT22;30162;53.642;10.640;2022-07-05T12:20:06;28.40;50.30
44461;DHT22;30162;53.642;10.640;2022-07-05T12:22:34;28.30;51.80
44461;DHT22;30162;53.642;10.640;2022-07-05T12:25:01;28.20;52.60
44461;DHT22;30162;53.642;10.640;2022-07-05T12:27:28;27.80;51.80
44461;DHT22;30162;53.642;10.640;2022-07-05T12:29:58;27.90;52.30
44461;DHT22;30162;53.642;10.640;2022-07-05T12:32:24;27.80;53.70
44461;DHT22;30162;53.642;10.640;2022-07-05T12:34:49;27.80;51.90
44461;DHT22;30162;53.642;10.640;2022-07-05T12:37:26;27.10;53.30
44461;DHT22;30162;53.642;10.640;2022-07-05T12:40:07;27.20;52.60
44461;DHT22;30162;53.642;10.640;2022-07-05T12:42:35;27.20;54.80
44461;DHT22;30162;53.642;10.640;2022-07-05T12:45:15;27.70;52.60
44461;DHT22;30162;53.642;10.640;2022-07-05T12:48:08;28.20;52.50
44461;DHT22;30162;53.642;10.640;2022-07-05T12:50:51;27.90;52.80
44461;DHT22;30162;53.642;10.640;2022-07-05T12:53:18;27.40;52.90
44461;DHT22;30162;53.642;10.640;2022-07-05T12:56:04;27.50;53.60
44461;DHT22;30162;53.642;10.640;2022-07-05T12:58:59;27.50;53.40
44461;DHT22;30162;53.642;10.640;2022-07-05T13:01:33;27.40;52.90
44461;DHT22;30162;53.642;10.640;2022-07-05T13:04:15;27.50;52.70
44461;DHT22;30162;53.642;10.640;2022-07-05T13:06:53;27.40;52.40
44461;DHT22;30162;53.642;10.640;2022-07-05T13:12:15;27.10;54.10
44461;DHT22;30162;53.642;10.640;2022-07-05T13:14:42;27.30;53.80
44461;DHT22;30162;53.642;10.640;2022-07-05T13:17:10;27.80;54.60
44461;DHT22;30162;53.642;10.640;2022-07-05T13:19:36;28.10;52.40
44461;DHT22;30162;53.642;10.640;2022-07-05T13:22:04;28.40;53.70
44461;DHT22;30162;53.642;10.640;2022-07-05T13:24:29;28.70;52.70
44461;DHT22;30162;53.642;10.640;2022-07-05T13:26:56;28.90;53.30
44461;DHT22;30162;53.642;10.640;2022-07-05T13:29:21;28.80;52.20
44461;DHT22;30162;53.642;10.640;2022-07-05T13:31:47;28.20;51.60
44461;DHT22;30162;53.642;10.640;2022-07-05T13:34:13;28.20;52.90
44461;DHT22;30162;53.642;10.640;2022-07-05T13:36:38;28.50;53.50
44461;DHT22;30162;53.642;10.640;2022-07-05T13:39:04;28.90;52.80
44461;DHT22;30162;53.642;10.640;2022-07-05T13:41:29;28.90;51.90
44461;DHT22;30162;53.642;10.640;2022-07-05T13:43:57;29.00;52.70
44461;DHT22;30162;53.642;10.640;2022-07-05T13:46:23;28.80;51.20
44461;DHT22;30162;53.642;10.640;2022-07-05T13:48:48;27.80;53.80
44461;DHT22;30162;53.642;10.640;2022-07-05T13:51:14;28.10;53.50
44461;DHT22;30162;53.642;10.640;2022-07-05T13:53:40;28.40;53.30
44461;DHT22;30162;53.642;10.640;2022-07-05T13:56:05;28.50;52.70
44461;DHT22;30162;53.642;10.640;2022-07-05T13:58:32;28.40;53.20
44461;DHT22;30162;53.642;10.640;2022-07-05T14:00:58;27.80;53.70
44461;DHT22;30162;53.642;10.640;2022-07-05T14:03:24;27.80;54.40
44461;DHT22;30162;53.642;10.640;2022-07-05T14:05:49;27.60;52.60
44461;DHT22;30162;53.642;10.640;2022-07-05T14:08:15;27.60;54.00
44461;DHT22;30162;53.642;10.640;2022-07-05T14:10:53;27.70;55.20
44461;DHT22;30162;53.642;10.640;2022-07-05T14:13:21;27.80;54.40
44461;DHT22;30162;53.642;10.640;2022-07-05T14:15:48;27.80;54.80
44461;DHT22;30162;53.642;10.640;2022-07-05T14:20:45;27.30;55.90
44461;DHT22;30162;53.642;10.640;2022-07-05T14:23:12;27.10;56.90
44461;DHT22;30162;53.642;10.640;2022-07-05T14:25:38;26.70;58.20
44461;DHT22;30162;53.642;10.640;2022-07-05T14:28:04;26.60;57.80
44461;DHT22;30162;53.642;10.640;2022-07-05T14:30:38;26.50;57.70
44461;DHT22;30162;53.642;10.640;2022-07-05T14:33:05;26.40;57.90
44461;DHT22;30162;53.642;10.640;2022-07-05T14:35:32;26.20;59.00
44461;DHT22;30162;53.642;10.640;2022-07-05T14:37:58;26.10;58.90
44461;DHT22;30162;53.642;10.640;2022-07-05T14:40:25;25.90;58.80
44461;DHT22;30162;53.642;10.640;2022-07-05T14:42:51;25.80;58.90
44461;DHT22;30162;53.642;10.640;2022-07-05T14:45:18;25.70;59.10
44461;DHT22;30162;53.642;10.640;2022-07-05T14:47:43;25.50;59.80
44461;DHT22;30162;53.642;10.640;2022-07-05T14:50:09;25.50;60.00
44461;DHT22;30162;53.642;10.640;2022-07-05T14:52:34;25.40;60.00
44461;DHT22;30162;53.642;10.640;2022-07-05T14:55:00;25.30;60.90
44461;DHT22;30162;53.642;10.640;2022-07-05T14:57:26;25.30;60.80
44461;DHT22;30162;53.642;10.640;2022-07-05T14:59:52;24.90;61.10
44461;DHT22;30162;53.642;10.640;2022-07-05T15:02:17;24.60;61.50
44461;DHT22;30162;53.642;10.640;2022-07-05T15:04:43;24.90;61.50
44461;DHT22;30162;53.642;10.640;2022-07-05T15:07:09;25.10;61.40
44461;DHT22;30162;53.642;10.640;2022-07-05T15:09:34;25.40;61.70
44461;DHT22;30162;53.642;10.640;2022-07-05T15:12:01;25.50;61.30
44461;DHT22;30162;53.642;10.640;2022-07-05T15:14:26;25.50;60.30
44461;DHT22;30162;53.642;10.640;2022-07-05T15:16:55;25.70;60.30
44461;DHT22;30162;53.642;10.640;2022-07-05T15:19:22;25.70;60.20
44461;DHT22;30162;53.642;10.640;2022-07-05T15:21:48;25.80;60.30
44461;DHT22;30162;53.642;10.640;2022-07-05T15:24:14;25.70;60.10
44461;DHT22;30162;53.642;10.640;2022-07-05T15:26:39;25.70;60.50
44461;DHT22;30162;53.642;10.640;2022-07-05T15:29:06;25.60;60.50
44461;DHT22;30162;53.642;10.640;2022-07-05T15:31:34;25.60;59.90
44461;DHT22;30162;53.642;10.640;2022-07-05T15:34:01;25.50;60.50
44461;DHT22;30162;53.642;10.640;2022-07-05T15:36:27;25.20;60.20
44461;DHT22;30162;53.642;10.640;2022-07-05T15:38:53;24.90;60.50
44461;DHT22;30162;53.642;10.640;2022-07-05T15:41:19;25.00;61.20
44461;DHT22;30162;53.642;10.640;2022-07-05T15:43:45;25.30;61.20
44461;DHT22;30162;53.642;10.640;2022-07-05T15:46:11;25.70;61.00
44461;DHT22;30162;53.642;10.640;2022-07-05T15:48:36;25.80;60.40
44461;DHT22;30162;53.642;10.640;2022-07-05T15:51:02;25.40;60.70
44461;DHT22;30162;53.642;10.640;2022-07-05T15:53:30;25.50;61.10
44461;DHT22;30162;53.642;10.640;2022-07-05T15:55:57;25.40;60.90